ADDS METAR Data INFO
IDs: Format: Raw Decoded Include TAF

Data at: 0320 UTC 16 Dec 2017

KFSW 160315Z AUTO 21011KT 10SM OVC100 03/M06 A2991 RMK AO2
KFSW 160255Z AUTO 20009KT 10SM BKN110 03/M05 A2992 RMK AO2
KFSW 160235Z AUTO 21010KT 10SM CLR 02/M05 A2993 RMK AO2
KFSW 160215Z AUTO 20010KT 10SM CLR 02/M05 A2993 RMK AO2
KFSW 160155Z AUTO 21008G15KT 10SM SCT110 03/M05 A2994 RMK AO2
KFSW 160135Z AUTO 21009KT 10SM SCT110 03/M06 A2994 RMK AO2
KFSW 160115Z AUTO 21008KT 10SM CLR 03/M06 A2994 RMK AO2
KFSW 160055Z AUTO 21008KT 10SM CLR 03/M06 A2994 RMK AO2
KFSW 160035Z AUTO 21007KT 10SM CLR 03/M06 A2995 RMK AO2
KFSW 160015Z AUTO 21005KT 10SM CLR 03/M06 A2995 RMK AO2
KFSW 152355Z AUTO 22007KT 10SM CLR 03/M06 A2995 RMK AO2
KFSW 152335Z AUTO 22006KT 10SM CLR 03/M06 A2995 RMK AO2
KFSW 152315Z AUTO 22006KT 10SM CLR 04/M06 A2994 RMK AO2
KFSW 152255Z AUTO 22006KT 10SM CLR 04/M06 A2994 RMK AO2
KFSW 152235Z AUTO 23006KT 10SM CLR 05/M06 A2995 RMK AO2
KFSW 152215Z AUTO 25007G16KT 10SM CLR 06/M06 A2995 RMK AO2
KFSW 152155Z AUTO 24006KT 10SM CLR 06/M06 A2995 RMK AO2
KFSW 152135Z AUTO 25009KT 10SM CLR 06/M06 A2995 RMK AO2
KFSW 152115Z AUTO 24011KT 10SM CLR 06/M06 A2996 RMK AO2
KFSW 152055Z AUTO 25010G16KT 10SM CLR 06/M06 A2996 RMK AO2
KFSW 152035Z AUTO 24012G17KT 10SM SCT060 07/M06 A2996 RMK AO2
KFSW 152015Z AUTO 25012G18KT 10SM OVC060 06/M06 A2996 RMK AO2
KFSW 151955Z AUTO 23012KT 10SM OVC060 05/M06 A2997 RMK AO2
KFSW 151935Z AUTO 24007G15KT 10SM OVC060 04/M06 A2997 RMK AO2
KFSW 151915Z AUTO 23010G16KT 10SM OVC060 04/M06 A2998 RMK AO2
KFSW 151855Z AUTO 24008G14KT 10SM OVC060 03/M06 A2998 RMK AO2
KFSW 151835Z AUTO 23009KT 10SM OVC060 03/M06 A3000 RMK AO2
KFSW 151815Z AUTO 23011G15KT 10SM OVC060 03/M06 A3000 RMK AO2
KFSW 151755Z AUTO 24010KT 10SM OVC060 02/M06 A3001 RMK AO2
KFSW 151735Z AUTO 23008KT 10SM OVC060 02/M06 A3002 RMK AO2
KFSW 151715Z AUTO 24008KT 10SM OVC060 01/M06 A3004 RMK AO2
KFSW 151655Z AUTO 23008KT 10SM OVC060 01/M06 A3004 RMK AO2
KFSW 151635Z AUTO 25005KT 10SM OVC060 01/M06 A3005 RMK AO2
KFSW 151615Z AUTO 25007KT 10SM OVC060 00/M05 A3007 RMK AO2
KFSW 151555Z AUTO 25007KT 10SM OVC060 00/M04 A3006 RMK AO2
KFSW 151535Z AUTO 27006KT 10SM BKN060 00/M04 A3006 RMK AO2
KFSW 151515Z AUTO 24005KT 10SM SCT060 M01/M03 A3006 RMK AO2
KFSW 151455Z AUTO 24005KT 10SM SCT060 M02/M04 A3006 RMK AO2
KFSW 151435Z AUTO 23005KT 10SM CLR M02/M04 A3006 RMK AO2
KFSW 151415Z AUTO 25004KT 10SM CLR M03/M04 A3006 RMK AO2
KFSW 151355Z AUTO 26003KT 10SM CLR M04/M05 A3006 RMK AO2
KFSW 151335Z AUTO 26003KT 10SM CLR M04/M06 A3006 RMK AO2
KFSW 151315Z AUTO 28005KT 10SM CLR M03/M05 A3005 RMK AO2
KFSW 151255Z AUTO 29006KT 10SM CLR M03/M05 A3005 RMK AO2
KFSW 151235Z AUTO 29005G08KT 10SM SCT048 M02/M05 A3005 RMK AO2
KFSW 151215Z AUTO 28006KT 10SM OVC046 M02/M04 A3005 RMK AO2
KFSW 151155Z AUTO 29008KT 10SM OVC044 M02/M04 A3005 RMK AO2
KFSW 151135Z AUTO 30008G15KT 10SM SCT019 OVC042 M02/M04 A3005 RMK AO2
KFSW 151115Z AUTO 30007KT 10SM BKN021 OVC034 M02/M04 A3005 RMK AO2
KFSW 151055Z AUTO 31008KT 10SM SCT021 OVC029 M01/M04 A3005 RMK AO2
KFSW 151035Z AUTO 30007KT 10SM OVC027 M02/M05 A3005 RMK AO2
KFSW 151015Z AUTO 29007KT 10SM BKN027 OVC031 M02/M05 A3005 RMK AO2
KFSW 150955Z AUTO 29008G14KT 10SM OVC033 M02/M06 A3004 RMK AO2
KFSW 150935Z AUTO 28008KT 10SM BKN035 OVC048 M02/M06 A3005 RMK AO2
KFSW 150915Z AUTO 26005KT 10SM OVC037 M02/M06 A3005 RMK AO2
KFSW 150855Z AUTO 25004KT 10SM BKN043 OVC049 M02/M06 A3004 RMK AO2
KFSW 150835Z AUTO 23005KT 10SM OVC046 M02/M06 A3004 RMK AO2
KFSW 150815Z AUTO 23005KT 10SM OVC048 M02/M07 A3004 RMK AO2
KFSW 150755Z AUTO 23007KT 10SM OVC050 M03/M07 A3004 RMK AO2
KFSW 150735Z AUTO 23005KT 10SM OVC050 M03/M07 A3004 RMK AO2
KFSW 150715Z AUTO 22005KT 10SM OVC050 M03/M07 A3005 RMK AO2
KFSW 150655Z AUTO 22007KT 10SM SCT050 BKN090 M03/M07 A3005 RMK AO2
KFSW 150635Z AUTO 21005KT 10SM SCT045 OVC090 M03/M07 A3006 RMK AO2
KFSW 150615Z AUTO 23004KT 10SM SCT032 OVC090 M03/M07 A3007 RMK AO2
KFSW 150555Z AUTO 23005KT 10SM SCT034 OVC090 M03/M07 A3007 RMK AO2
KFSW 150535Z AUTO 23004KT 10SM SCT034 OVC090 M03/M07 A3008 RMK AO2
KFSW 150515Z AUTO 23006KT 10SM SCT034 OVC090 M03/M07 A3008 RMK AO2
KFSW 150455Z AUTO 22004KT 10SM SCT034 OVC090 M03/M07 A3009 RMK AO2
KFSW 150435Z AUTO 24005KT 10SM BKN034 OVC090 M03/M08 A3009 RMK AO2
KFSW 150415Z AUTO 21004KT 10SM BKN034 OVC090 M03/M07 A3009 RMK AO2
KFSW 150355Z AUTO 00000KT 10SM OVC032 M03/M07 A3009 RMK AO2
KFSW 150335Z AUTO 00000KT 10SM OVC028 M03/M07 A3010 RMK AO2
KFSW 150315Z AUTO 00000KT 10SM OVC028 M03/M08 A3010 RMK AO2
KFSW 150255Z AUTO 00000KT 10SM OVC028 M03/M08 A3011 RMK AO2
KFSW 150235Z AUTO 00000KT 10SM OVC028 M03/M08 A3011 RMK AO2
KFSW 150215Z AUTO 00000KT 10SM OVC028 M03/M08 A3011 RMK AO2
KFSW 150155Z AUTO 00000KT 10SM OVC028 M03/M08 A3012 RMK AO2
KFSW 150135Z AUTO 00000KT 10SM OVC028 M03/M08 A3012 RMK AO2
KFSW 150115Z AUTO 00000KT 10SM OVC030 M03/M08 A3011 RMK AO2
KFSW 150055Z AUTO 00000KT 10SM OVC030 M03/M08 A3011 RMK AO2
KFSW 150035Z AUTO 33003KT 10SM OVC030 M03/M08 A3011 RMK AO2
KFSW 150015Z AUTO 00000KT 10SM OVC030 M03/M08 A3011 RMK AO2
KFSW 142355Z AUTO 31006KT 10SM OVC030 M03/M08 A3011 RMK AO2
KFSW 142335Z AUTO 31006KT 10SM OVC030 M03/M08 A3010 RMK AO2
KFSW 142315Z AUTO 30006KT 10SM OVC030 M03/M08 A3010 RMK AO2
KFSW 142255Z AUTO 31007KT 10SM OVC032 M02/M08 A3009 RMK AO2
KFSW 142235Z AUTO 32006KT 10SM OVC032 M02/M08 A3009 RMK AO2
KFSW 142215Z AUTO 30004KT 10SM OVC032 M02/M08 A3009 RMK AO2
KFSW 142155Z AUTO 30006KT 10SM OVC032 M02/M08 A3009 RMK AO2
KFSW 142135Z AUTO 31005KT 10SM OVC032 M02/M08 A3008 RMK AO2
KFSW 142115Z AUTO 30007KT 10SM OVC032 M01/M08 A3008 RMK AO2
KFSW 142055Z AUTO 28005KT 10SM OVC032 M01/M08 A3008 RMK AO2
KFSW 142035Z AUTO 29005KT 10SM OVC032 M01/M08 A3007 RMK AO2
KFSW 142015Z AUTO 32003KT 10SM OVC032 M01/M08 A3007 RMK AO2
KFSW 141955Z AUTO 28003KT 10SM OVC030 M01/M08 A3007 RMK AO2
KFSW 141935Z AUTO 31003KT 10SM OVC030 M02/M08 A3008 RMK AO2
KFSW 141915Z AUTO 28004KT 10SM BKN028 M02/M08 A3008 RMK AO2
KFSW 141855Z AUTO 00000KT 10SM CLR M02/M08 A3007 RMK AO2
KFSW 141835Z AUTO 00000KT 10SM SCT026 M02/M08 A3008 RMK AO2
KFSW 141815Z AUTO 00000KT 10SM OVC026 M02/M08 A3009 RMK AO2
KFSW 141755Z AUTO 00000KT 10SM BKN026 M03/M08 A3009 RMK AO2
KFSW 141735Z AUTO 00000KT 10SM OVC024 M03/M08 A3010 RMK AO2
KFSW 141715Z AUTO 00000KT 10SM BKN024 M03/M08 A3010 RMK AO2
KFSW 141655Z AUTO 00000KT 10SM SCT024 M02/M08 A3010 RMK AO2
KFSW 141635Z AUTO 00000KT 10SM SCT026 M03/M08 A3011 RMK AO2
KFSW 141615Z AUTO 00000KT 10SM BKN026 M03/M08 A3012 RMK AO2
KFSW 141555Z AUTO 00000KT 10SM OVC026 M03/M08 A3011 RMK AO2
KFSW 141535Z AUTO 35003KT 10SM OVC026 M04/M08 A3011 RMK AO2